Northern Power — A8TL6 — position and weather

sailwx.info

Track history (hours):
 
Tides and Currents Weather Stations Pressure Air Temp Water Temp Dewpoint Dewpoint Depression Visibility Wind Speed Wind Dir Waves Ship Positions

Northern Power

Last reported at 2016-Aug-25 04:25 UTC. Time now 2016-Aug-25 06:19 UTC.
Position N 14°41' W 017°26'.

Length 264 m; draft 12.8 m.

Type: Cargo ship. MMSI: 636091835.

Date/timePositionNaut miles runAvg speedWind from/ knotsBaromVisibWave heightAir tempDewpointWater temp
2016-Aug-25 04:25N 14°41' W 017°26'0 0.0
2016-Aug-25 03:25N 14°41' W 017°26'0 0.0
2016-Aug-25 02:25N 14°41' W 017°26'0 0.0
2016-Aug-25 01:25N 14°41' W 017°26'0 0.0
2016-Aug-25 00:31N 14°41' W 017°26'0 0.0
2016-Aug-24 23:28N 14°41' W 017°26'0 0.0
2016-Aug-24 22:28N 14°41' W 017°26'0 0.0
2016-Aug-24 21:32N 14°41' W 017°26'0 0.0
2016-Aug-24 20:31N 14°41' W 017°26'0 0.0
2016-Aug-24 19:31N 14°41' W 017°26'0 0.0
2016-Aug-24 18:31N 14°41' W 017°26'0 0.0
2016-Aug-24 17:31N 14°41' W 017°26'0 0.0
2016-Aug-24 16:31N 14°41' W 017°26'0 0.0
2016-Aug-24 15:30N 14°41' W 017°26'0 0.0
2016-Aug-24 14:24N 14°41' W 017°26'0 0.0
2016-Aug-24 13:30N 14°41' W 017°26'0 0.0
2016-Aug-24 12:30N 14°41' W 017°26'0 0.0
2016-Aug-24 11:28N 14°41' W 017°26'0 0.0
2016-Aug-24 10:31N 14°41' W 017°26'0 0.0
2016-Aug-24 09:27N 14°41' W 017°26'0 0.0
2016-Aug-24 08:27N 14°41' W 017°26'0 0.0
2016-Aug-24 07:30N 14°41' W 017°26'0 0.0
2016-Aug-24 06:30N 14°41' W 017°26'0 0.0
2016-Aug-24 04:33N 14°41' W 017°26'0 0.0
2016-Aug-24 03:33N 14°41' W 017°26'0 0.0
2016-Aug-24 02:33N 14°41' W 017°26'2 2.3
2016-Aug-24 01:33N 14°41' W 017°23'3 3.2
2016-Aug-24 00:33N 14°37' W 017°23'2 1.7
2016-Aug-23 23:33N 14°37' W 017°25'76818.3
2016-Aug-22 05:33N 27°06' W 014°23'2120.9
2016-Aug-22 04:33N 27°22' W 014°07'2121.0
2016-Aug-22 03:33N 27°37' W 013°52'2521.4
2016-Aug-22 02:24N 27°57' W 013°34'18721.1
2016-Aug-21 17:33N 30°33' W 011°38'2720.5
2016-Aug-21 16:13N 30°56' W 011°21'2321.0
2016-Aug-21 15:09N 31°15' W 011°07'2120.5
2016-Aug-21 14:08N 31°32' W 010°53'1320.5
2016-Aug-21 13:30N 31°43' W 010°45'2021.2
2016-Aug-21 12:33N 32°00' W 010°32'2720.9
2016-Aug-21 11:16N 32°20' W 010°11'29320.9
2016-Aug-20 21:15N 35°50' W 006°04'1419.1
2016-Aug-20 20:32N 35°57' W 005°50'1616.1
2016-Aug-20 19:34N 35°60' W 005°31'10 9.8
2016-Aug-20 18:34N 36°08' W 005°25'0 0.5
2016-Aug-20 17:33N 36°08' W 005°25'0 0.0
2016-Aug-20 16:33N 36°08' W 005°25'0 0.0
2016-Aug-20 15:33N 36°08' W 005°25'0 0.0
2016-Aug-20 14:33N 36°08' W 005°25'0 0.0
2016-Aug-20 13:33N 36°08' W 005°25'0 0.0
2016-Aug-20 12:33N 36°08' W 005°25'2 1.5
2016-Aug-20 11:33N 36°09' W 005°25'0 0.0
2016-Aug-20 09:30N 36°09' W 005°25'0 0.0
2016-Aug-20 06:24N 36°09' W 005°25'0 0.0
2016-Aug-20 05:27N 36°09' W 005°25'0 0.0
2016-Aug-20 04:30N 36°09' W 005°25'0 0.2
2016-Aug-20 03:30N 36°10' W 005°25'0 0.0
2016-Aug-20 02:33N 36°10' W 005°25'0 0.1
2016-Aug-20 01:30N 36°09' W 005°25'0 0.2
2016-Aug-20 00:30N 36°10' W 005°25'0 0.1
2016-Aug-19 23:30N 36°10' W 005°25'0 0.2
2016-Aug-19 22:33N 36°09' W 005°25'0 0.0
2016-Aug-19 21:33N 36°09' W 005°25'0 0.0
2016-Aug-19 20:18N 36°09' W 005°25'0 0.0
2016-Aug-19 19:30N 36°09' W 005°25'0 0.0
2016-Aug-19 18:33N 36°09' W 005°25'0 0.0
2016-Aug-19 17:33N 36°09' W 005°25'0 0.0
2016-Aug-19 16:33N 36°09' W 005°25'0 0.0
2016-Aug-19 15:30N 36°09' W 005°25'0 0.0
2016-Aug-19 14:33N 36°09' W 005°25'0 0.1
2016-Aug-19 13:33N 36°09' W 005°25'0 0.1
2016-Aug-19 12:33N 36°10' W 005°25'0 0.1
2016-Aug-19 11:33N 36°10' W 005°25'0 0.2
2016-Aug-19 10:33N 36°09' W 005°25'0 0.0
2016-Aug-19 09:24N 36°09' W 005°25'0 0.2
2016-Aug-19 08:32N 36°09' W 005°25'1 0.2
2016-Aug-19 04:20N 36°09' W 005°26'0 0.0
2016-Aug-19 02:26N 36°09' W 005°26'0 0.0
2016-Aug-19 01:29N 36°09' W 005°26'0 0.0
2016-Aug-18 23:32N 36°09' W 005°26'0 0.0
2016-Aug-18 22:32N 36°09' W 005°26'0 0.0
2016-Aug-18 21:29N 36°09' W 005°26'0 0.0
2016-Aug-18 20:32N 36°09' W 005°26'0 0.0
2016-Aug-18 19:32N 36°09' W 005°26'0 0.0
2016-Aug-18 18:29N 36°09' W 005°26'0 0.0
2016-Aug-18 17:20N 36°09' W 005°26'2 2.2
2016-Aug-18 16:33N 36°08' W 005°24'1111.1
2016-Aug-18 15:34N 36°04' W 005°11'5 0.5
2016-Aug-18 06:31N 36°04' W 005°05'2 2.3
2016-Aug-18 05:32N 36°06' W 005°08'2 2.0
2016-Aug-18 04:32N 36°06' W 005°10'8 7.8
2016-Aug-18 03:33N 36°01' W 005°18'1210.4
2016-Aug-18 02:21N 35°53' W 005°30'2 0.1
2016-Aug-17 12:13N 35°55' W 005°31'2 3.0
2016-Aug-17 11:25N 35°57' W 005°33'3 3.2
2016-Aug-17 10:33N 35°59' W 005°30'5 5.4
2016-Aug-17 09:33N 36°01' W 005°24'1211.5
2016-Aug-17 08:34N 36°04' W 005°11'  
Track history (hours):
 
Tides and Currents Weather Stations Pressure Air Temp Water Temp Dewpoint Dewpoint Depression Visibility Wind Speed Wind Dir Waves Ship Positions

Northern Power

Last reported at 2016-Aug-25 04:25 UTC. Time now 2016-Aug-25 06:19 UTC.
Position N 14°41' W 017°26'.

Length 264 m; draft 12.8 m.

Type: Cargo ship. MMSI: 636091835.

Date/timePositionNaut miles runAvg speedWind from/ knotsBaromVisibWave heightAir tempDewpointWater temp
2016-Aug-25 04:25N 14°41' W 017°26'0 0.0
2016-Aug-25 03:25N 14°41' W 017°26'0 0.0
2016-Aug-25 02:25N 14°41' W 017°26'0 0.0
2016-Aug-25 01:25N 14°41' W 017°26'0 0.0
2016-Aug-25 00:31N 14°41' W 017°26'0 0.0
2016-Aug-24 23:28N 14°41' W 017°26'0 0.0
2016-Aug-24 22:28N 14°41' W 017°26'0 0.0
2016-Aug-24 21:32N 14°41' W 017°26'0 0.0
2016-Aug-24 20:31N 14°41' W 017°26'0 0.0
2016-Aug-24 19:31N 14°41' W 017°26'0 0.0
2016-Aug-24 18:31N 14°41' W 017°26'0 0.0
2016-Aug-24 17:31N 14°41' W 017°26'0 0.0
2016-Aug-24 16:31N 14°41' W 017°26'0 0.0
2016-Aug-24 15:30N 14°41' W 017°26'0 0.0
2016-Aug-24 14:24N 14°41' W 017°26'0 0.0
2016-Aug-24 13:30N 14°41' W 017°26'0 0.0
2016-Aug-24 12:30N 14°41' W 017°26'0 0.0
2016-Aug-24 11:28N 14°41' W 017°26'0 0.0
2016-Aug-24 10:31N 14°41' W 017°26'0 0.0
2016-Aug-24 09:27N 14°41' W 017°26'0 0.0
2016-Aug-24 08:27N 14°41' W 017°26'0 0.0
2016-Aug-24 07:30N 14°41' W 017°26'0 0.0
2016-Aug-24 06:30N 14°41' W 017°26'0 0.0
2016-Aug-24 04:33N 14°41' W 017°26'0 0.0
2016-Aug-24 03:33N 14°41' W 017°26'0 0.0
2016-Aug-24 02:33N 14°41' W 017°26'2 2.3
2016-Aug-24 01:33N 14°41' W 017°23'3 3.2
2016-Aug-24 00:33N 14°37' W 017°23'2 1.7
2016-Aug-23 23:33N 14°37' W 017°25'76818.3
2016-Aug-22 05:33N 27°06' W 014°23'2120.9
2016-Aug-22 04:33N 27°22' W 014°07'2121.0
2016-Aug-22 03:33N 27°37' W 013°52'2521.4
2016-Aug-22 02:24N 27°57' W 013°34'18721.1
2016-Aug-21 17:33N 30°33' W 011°38'2720.5
2016-Aug-21 16:13N 30°56' W 011°21'2321.0
2016-Aug-21 15:09N 31°15' W 011°07'2120.5
2016-Aug-21 14:08N 31°32' W 010°53'1320.5
2016-Aug-21 13:30N 31°43' W 010°45'2021.2
2016-Aug-21 12:33N 32°00' W 010°32'2720.9
2016-Aug-21 11:16N 32°20' W 010°11'29320.9
2016-Aug-20 21:15N 35°50' W 006°04'1419.1
2016-Aug-20 20:32N 35°57' W 005°50'1616.1
2016-Aug-20 19:34N 35°60' W 005°31'10 9.8
2016-Aug-20 18:34N 36°08' W 005°25'0 0.5
2016-Aug-20 17:33N 36°08' W 005°25'0 0.0
2016-Aug-20 16:33N 36°08' W 005°25'0 0.0
2016-Aug-20 15:33N 36°08' W 005°25'0 0.0
2016-Aug-20 14:33N 36°08' W 005°25'0 0.0
2016-Aug-20 13:33N 36°08' W 005°25'0 0.0
2016-Aug-20 12:33N 36°08' W 005°25'2 1.5
2016-Aug-20 11:33N 36°09' W 005°25'0 0.0
2016-Aug-20 09:30N 36°09' W 005°25'0 0.0
2016-Aug-20 06:24N 36°09' W 005°25'0 0.0
2016-Aug-20 05:27N 36°09' W 005°25'0 0.0
2016-Aug-20 04:30N 36°09' W 005°25'0 0.2
2016-Aug-20 03:30N 36°10' W 005°25'0 0.0
2016-Aug-20 02:33N 36°10' W 005°25'0 0.1
2016-Aug-20 01:30N 36°09' W 005°25'0 0.2
2016-Aug-20 00:30N 36°10' W 005°25'0 0.1
2016-Aug-19 23:30N 36°10' W 005°25'0 0.2
2016-Aug-19 22:33N 36°09' W 005°25'0 0.0
2016-Aug-19 21:33N 36°09' W 005°25'0 0.0
2016-Aug-19 20:18N 36°09' W 005°25'0 0.0
2016-Aug-19 19:30N 36°09' W 005°25'0 0.0
2016-Aug-19 18:33N 36°09' W 005°25'0 0.0
2016-Aug-19 17:33N 36°09' W 005°25'0 0.0
2016-Aug-19 16:33N 36°09' W 005°25'0 0.0
2016-Aug-19 15:30N 36°09' W 005°25'0 0.0
2016-Aug-19 14:33N 36°09' W 005°25'0 0.1
2016-Aug-19 13:33N 36°09' W 005°25'0 0.1
2016-Aug-19 12:33N 36°10' W 005°25'0 0.1
2016-Aug-19 11:33N 36°10' W 005°25'0 0.2
2016-Aug-19 10:33N 36°09' W 005°25'0 0.0
2016-Aug-19 09:24N 36°09' W 005°25'0 0.2
2016-Aug-19 08:32N 36°09' W 005°25'1 0.2
2016-Aug-19 04:20N 36°09' W 005°26'0 0.0
2016-Aug-19 02:26N 36°09' W 005°26'0 0.0
2016-Aug-19 01:29N 36°09' W 005°26'0 0.0
2016-Aug-18 23:32N 36°09' W 005°26'0 0.0
2016-Aug-18 22:32N 36°09' W 005°26'0 0.0
2016-Aug-18 21:29N 36°09' W 005°26'0 0.0
2016-Aug-18 20:32N 36°09' W 005°26'0 0.0
2016-Aug-18 19:32N 36°09' W 005°26'0 0.0
2016-Aug-18 18:29N 36°09' W 005°26'0 0.0
2016-Aug-18 17:20N 36°09' W 005°26'2 2.2
2016-Aug-18 16:33N 36°08' W 005°24'1111.1
2016-Aug-18 15:34N 36°04' W 005°11'5 0.5
2016-Aug-18 06:31N 36°04' W 005°05'2 2.3
2016-Aug-18 05:32N 36°06' W 005°08'2 2.0
2016-Aug-18 04:32N 36°06' W 005°10'8 7.8
2016-Aug-18 03:33N 36°01' W 005°18'1210.4
2016-Aug-18 02:21N 35°53' W 005°30'2 0.1
2016-Aug-17 12:13N 35°55' W 005°31'2 3.0
2016-Aug-17 11:25N 35°57' W 005°33'3 3.2
2016-Aug-17 10:33N 35°59' W 005°30'5 5.4
2016-Aug-17 09:33N 36°01' W 005°24'1211.5
2016-Aug-17 08:34N 36°04' W 005°11'  

Dump ship's entire track history